CDT,Max TemperatureF,Mean TemperatureF,Min TemperatureF,Max Dew PointF,MeanDew PointF,Min DewpointF,Max Humidity, Mean Humidity, Min Humidity, Max Sea Level PressureIn, Mean Sea Level PressureIn, Min Sea Level PressureIn, Max VisibilityMiles, Mean VisibilityMiles, Min VisibilityMiles, Max Wind SpeedMPH, Mean Wind SpeedMPH, Max Gust SpeedMPH,PrecipitationIn, CloudCover, Events, WindDirDegrees
2012-9-1,87,80,73,81,76,66,100,92,52,30.13,30.08,30.04,10,8,2,13,2,21,0.18,2,Rain-Thunderstorm,173
2012-9-2,91,82,73,82,72,63,100,78,40,30.09,30.03,29.96,10,7,0,9,2,17,0.00,3,Fog-Thunderstorm,215
2012-9-3,93,85,77,82,72,61,100,76,34,30.03,29.98,29.92,10,8,2,9,2,,0.00,3,,217
2012-9-4,93,82,71,82,71,57,100,77,31,29.99,29.94,29.88,10,8,1,10,2,16,0.00,2,,236
2012-9-5,93,84,75,82,71,57,100,77,30,29.93,29.89,29.84,10,9,5,10,3,16,0.00,1,,242
2012-9-6,95,84,73,84,71,57,100,74,28,29.96,29.90,29.85,10,9,2,8,1,,0.00,0,,275
2012-9-7,95,84,73,81,70,57,100,73,30,29.93,29.87,29.79,10,8,0,9,1,,0.00,2,Fog,131
2012-9-8,84,76,68,77,71,63,100,88,51,30.01,29.90,29.83,10,8,3,13,3,25,0.01,4,Rain-Thunderstorm,350
2012-9-9,82,70,59,70,54,37,100,69,20,30.11,30.04,30.00,10,10,5,12,3,18,0.00,0,,15
2012-9-10,86,70,55,72,53,34,100,69,15,30.14,30.08,30.04,10,10,10,7,1,,0.00,0,,62
2012-9-11,86,70,55,72,55,39,100,69,19,30.15,30.09,30.05,10,10,7,9,1,,0.00,0,,96
2012-9-12,89,76,64,79,67,55,100,76,33,30.13,30.07,30.02,10,9,1,8,2,,0.51,3,Rain-Thunderstorm,126
2012-9-13,89,78,66,75,67,57,100,79,33,30.16,30.11,30.03,10,8,3,8,1,17,0.01,2,Rain-Thunderstorm,104
2012-9-14,89,76,64,79,66,54,100,76,29,30.17,30.12,30.06,10,8,4,7,1,,0.00,1,,91
2012-9-15,89,78,66,77,64,46,100,74,24,30.14,30.09,30.03,10,8,1,7,1,,0.00,1,,52
2012-9-16,89,78,66,77,64,50,100,72,27,30.05,29.99,29.90,10,8,4,6,0,,0.00,1,,15
2012-9-17,82,76,69,77,70,59,100,92,45,29.93,29.81,29.73,10,7,1,6,1,,0.80,7,Rain-Thunderstorm,280
2012-9-18,84,76,68,72,63,50,100,72,30,30.04,29.91,29.80,10,10,7,12,5,,0.01,4,Rain-Thunderstorm,337
2012-9-19,78,66,55,68,50,32,100,64,18,30.14,30.08,30.05,10,9,1,8,3,,0.00,1,,29
2012-9-20,82,66,50,66,48,28,100,69,14,30.12,30.06,30.00,10,10,10,6,1,,0.00,0,,63
2012-9-21,86,70,53,73,57,48,100,75,27,30.05,30.00,29.96,10,9,4,6,0,,0.00,0,,120
2012-9-22,89,74,60,79,62,50,100,77,26,30.11,30.06,30.00,10,7,0,5,0,,0.00,1,Fog,95
2012-9-23,89,74,60,81,62,48,100,72,24,30.18,30.13,30.10,10,7,3,7,0,,0.00,0,,9
2012-9-24,89,76,62,77,64,54,100,72,29,30.18,30.12,30.04,10,6,2,5,0,,0.00,2,,116
2012-9-25,89,78,66,79,68,57,100,79,37,30.10,30.06,30.01,10,6,0,8,1,,0.00,4,Fog-Thunderstorm,181
2012-9-26,87,74,62,75,66,61,100,72,40,30.11,30.05,30.01,10,7,0,7,1,,0.00,2,Fog,123
2012-9-27,87,74,62,77,67,63,100,66,43,30.14,30.08,30.01,10,7,0,7,1,,0.00,3,Fog,84
2012-9-28,86,76,66,81,73,66,100,88,62,30.06,30.01,29.96,10,8,0,8,1,,0.00,4,Fog-Rain-Thunderstorm,70
2012-9-29,75,74,73,75,75,73,100,100,100,29.97,29.90,29.80,10,7,0,8,1,,0.45,7,Fog-Rain,115
2012-9-30,84,72,60,79,70,61,100,91,70,29.79,29.63,29.51,10,8,1,15,8,24,2.72,8,Rain-Thunderstorm,172